Time;durP1;ratioP1;P1;durP2;ratioP2;P2;SDS_P1;SDS_P2;PMS_P1;PMS_P2;Temp;Humidity;BMP_temperature;BMP_pressure;BME280_temperature;BME280_humidity;BME280_pressure;Samples;Min_cycle;Max_cycle;Signal;HPM_P1;HPM_P2
2022/01/02 00:01:46;;;;;;;1.40;1.10;;;18.90;56.30;;;;;;5014171;28;20104;-71
2022/01/02 00:04:23;;;;;;;1.20;1.10;;;18.90;56.30;;;;;;5012666;28;20542;-71
2022/01/02 00:06:51;;;;;;;2.20;1.40;;;18.90;56.30;;;;;;5013929;28;20038;-71
2022/01/02 00:09:31;;;;;;;2.00;1.30;;;18.90;56.30;;;;;;5013932;28;20084;-71
2022/01/02 00:12:09;;;;;;;1.50;1.30;;;18.90;56.30;;;;;;5013971;28;20026;-71
2022/01/02 00:14:37;;;;;;;1.52;1.02;;;18.90;56.30;;;;;;5012607;28;20025;-71
2022/01/02 00:17:05;;;;;;;1.83;1.15;;;18.90;56.30;;;;;;5013854;28;20033;-71
2022/01/02 00:19:33;;;;;;;1.90;1.40;;;18.90;56.30;;;;;;4993929;28;20483;-71
2022/01/02 00:22:01;;;;;;;1.48;1.10;;;18.90;56.30;;;;;;4994205;28;20434;-71
2022/01/02 00:24:28;;;;;;;1.20;1.10;;;18.90;56.30;;;;;;4993852;28;20105;-71
2022/01/02 00:26:56;;;;;;;1.23;1.13;;;18.90;56.30;;;;;;4994174;28;20085;-71
2022/01/02 00:29:22;;;;;;;1.67;1.27;;;18.90;56.30;;;;;;5004098;28;20022;-71
2022/01/02 00:31:48;;;;;;;1.55;1.20;;;18.90;56.30;;;;;;5013618;28;20378;-71
2022/01/02 00:34:15;;;;;;;1.95;1.33;;;18.90;56.30;;;;;;5013507;28;20475;-71
2022/01/02 00:36:40;;;;;;;1.73;1.20;;;18.90;56.30;;;;;;5012222;28;20466;-71
2022/01/02 00:39:07;;;;;;;2.40;1.40;;;18.90;56.30;;;;;;5013349;28;20025;-71
2022/01/02 00:41:44;;;;;;;1.80;1.20;;;18.90;56.30;;;;;;5012190;28;20053;-71
2022/01/02 00:44:32;;;;;;;2.03;1.40;;;18.90;56.20;;;;;;5013448;28;20033;-71
2022/01/02 00:47:20;;;;;;;2.10;1.60;;;18.90;56.30;;;;;;5013517;28;20030;-71
2022/01/02 00:50:04;;;;;;;1.77;1.23;;;18.90;56.20;;;;;;5013167;28;20030;-71
2022/01/02 00:52:33;;;;;;;1.77;1.30;;;18.90;56.30;;;;;;5012159;28;20057;-71
2022/01/02 00:54:58;;;;;;;1.83;1.33;;;18.90;56.30;;;;;;5013140;28;20478;-71
2022/01/02 00:57:33;;;;;;;1.85;1.20;;;18.80;56.20;;;;;;5013266;28;20073;-71
2022/01/02 01:00:06;;;;;;;2.70;1.40;;;18.90;56.30;;;;;;5013174;28;20021;-71
2022/01/02 01:02:43;;;;;;;1.48;1.10;;;18.90;56.30;;;;;;5013098;28;20033;-71
2022/01/02 01:05:08;;;;;;;1.50;1.20;;;18.90;56.30;;;;;;5013047;28;20026;-71
2022/01/02 01:07:36;;;;;;;1.80;1.20;;;18.90;56.30;;;;;;5012858;28;20068;-71
2022/01/02 01:10:04;;;;;;;2.05;1.33;;;18.90;56.30;;;;;;5012889;28;20077;-71
2022/01/02 01:12:30;;;;;;;1.50;1.17;;;18.90;56.30;;;;;;5013018;28;20022;-71
2022/01/02 01:14:56;;;;;;;1.65;1.20;;;18.90;56.30;;;;;;5012831;28;20022;-71
2022/01/02 01:17:22;;;;;;;2.67;1.38;;;18.90;56.30;;;;;;5011441;28;20537;-71
2022/01/02 01:19:49;;;;;;;1.30;1.20;;;18.90;56.30;;;;;;4992206;28;20428;-71
2022/01/02 01:22:15;;;;;;;2.63;1.33;;;18.90;56.30;;;;;;4993303;28;20030;-71
2022/01/02 01:24:41;;;;;;;2.55;1.60;;;18.90;56.30;;;;;;4993170;28;20018;-71
2022/01/02 01:27:08;;;;;;;1.90;1.33;;;18.90;56.30;;;;;;4993274;28;20061;-71
2022/01/02 01:29:35;;;;;;;2.17;1.10;;;18.90;56.30;;;;;;5003398;28;20180;-71
2022/01/02 01:32:05;;;;;;;1.55;1.23;;;18.90;56.30;;;;;;5013044;28;20025;-71
2022/01/02 01:34:32;;;;;;;1.70;1.40;;;18.90;56.20;;;;;;5012650;28;20041;-71
2022/01/02 01:36:58;;;;;;;3.28;1.45;;;18.90;56.30;;;;;;5012713;28;20542;-71
2022/01/02 01:39:23;;;;;;;1.58;1.20;;;18.90;56.20;;;;;;5012512;28;20030;-71
2022/01/02 01:41:52;;;;;;;1.42;1.20;;;18.90;56.20;;;;;;5011761;28;20494;-71
2022/01/02 01:46:44;;;;;;;1.50;1.33;;;18.90;56.20;;;;;;5012911;28;20084;-71
2022/01/02 01:49:18;;;;;;;1.83;1.20;;;18.90;56.20;;;;;;5012503;28;20028;-71
2022/01/02 01:51:44;;;;;;;1.95;1.50;;;18.90;56.20;;;;;;5012533;28;20033;-71
2022/01/02 01:54:10;;;;;;;1.55;1.23;;;18.90;56.20;;;;;;5012535;28;20022;-71
2022/01/02 01:56:38;;;;;;;1.65;1.40;;;18.90;56.20;;;;;;5011242;28;20084;-71
2022/01/02 01:59:04;;;;;;;1.58;1.30;;;18.90;56.30;;;;;;5012497;28;20108;-71
2022/01/02 02:01:30;;;;;;;1.75;1.23;;;18.90;56.30;;;;;;5011183;28;20022;-71
2022/01/02 02:03:57;;;;;;;1.92;1.33;;;18.90;56.30;;;;;;5012321;28;20181;-71
2022/01/02 02:06:22;;;;;;;1.10;1.00;;;18.90;56.20;;;;;;5012386;28;20230;-71
2022/01/02 02:08:50;;;;;;;2.17;1.25;;;18.90;56.30;;;;;;5012171;28;20399;-71
2022/01/02 02:11:16;;;;;;;2.75;1.30;;;18.90;56.20;;;;;;5011109;28;20030;-71
2022/01/02 02:13:43;;;;;;;1.20;1.02;;;18.90;56.20;;;;;;5012402;28;20029;-71
2022/01/02 02:16:09;;;;;;;1.25;1.05;;;18.90;56.20;;;;;;5011064;28;20033;-71
2022/01/02 02:18:35;;;;;;;1.98;1.20;;;18.90;56.30;;;;;;4999679;28;20026;-71
2022/01/02 02:21:00;;;;;;;2.17;1.25;;;18.90;56.20;;;;;;4992693;28;20364;-71
2022/01/02 02:23:26;;;;;;;1.70;1.20;;;18.90;56.20;;;;;;4992628;28;20033;-71
2022/01/02 02:25:52;;;;;;;2.50;1.50;;;18.90;56.20;;;;;;4992678;28;20150;-71
2022/01/02 02:28:17;;;;;;;2.03;1.23;;;18.90;56.20;;;;;;4994109;28;20033;-71
2022/01/02 02:30:45;;;;;;;1.90;1.40;;;18.90;56.20;;;;;;5010832;28;20049;-71
2022/01/02 02:33:12;;;;;;;1.80;1.20;;;18.90;56.20;;;;;;5012201;28;20533;-71
2022/01/02 02:35:40;;;;;;;2.38;1.30;;;18.90;56.20;;;;;;5012115;28;20057;-71
2022/01/02 02:38:08;;;;;;;1.95;1.30;;;18.80;56.20;;;;;;5012160;28;20026;-71
2022/01/02 02:40:34;;;;;;;1.55;1.25;;;18.90;56.30;;;;;;5012038;28;20030;-71
2022/01/02 02:43:09;;;;;;;1.77;1.15;;;18.90;56.20;;;;;;5015171;28;20390;-71
2022/01/02 02:51:13;;;;;;;1.15;0.95;;;18.90;56.20;;;;;;5015484;28;20037;-71
2022/01/02 02:53:42;;;;;;;1.83;1.30;;;18.90;56.30;;;;;;5015529;28;20049;-71
2022/01/02 02:56:19;;;;;;;1.55;1.20;;;18.90;56.30;;;;;;5015367;28;20022;-71
2022/01/02 02:58:45;;;;;;;1.20;1.10;;;18.80;56.20;;;;;;5015409;28;20037;-71
2022/01/02 03:01:15;;;;;;;1.88;1.20;;;18.80;56.20;;;;;;5015213;28;20051;-72
2022/01/02 03:03:41;;;;;;;1.52;1.30;;;18.90;56.30;;;;;;5015411;28;20057;-71
2022/01/02 03:06:08;;;;;;;1.25;1.10;;;18.90;56.20;;;;;;5015215;28;20474;-71
2022/01/02 03:08:35;;;;;;;1.30;1.20;;;18.90;56.20;;;;;;5014962;28;20133;-71
2022/01/02 03:11:00;;;;;;;1.38;0.98;;;18.90;56.20;;;;;;5015105;28;20406;-71
2022/01/02 03:13:26;;;;;;;1.58;1.20;;;18.90;56.20;;;;;;5013789;28;20025;-71
2022/01/02 03:15:52;;;;;;;1.83;1.27;;;18.90;56.20;;;;;;5013728;28;20026;-71
2022/01/02 03:18:17;;;;;;;1.52;1.27;;;18.80;56.10;;;;;;5005880;28;20024;-71
2022/01/02 03:20:43;;;;;;;1.25;0.98;;;18.90;56.20;;;;;;4995479;28;20035;-71
2022/01/02 03:23:09;;;;;;;2.42;1.33;;;18.80;56.10;;;;;;4995361;28;20022;-71
2022/01/02 03:25:34;;;;;;;2.00;1.13;;;18.90;56.20;;;;;;4995306;28;20026;-71
2022/01/02 03:28:00;;;;;;;1.90;1.30;;;18.80;56.10;;;;;;4995173;28;20022;-71
2022/01/02 03:30:26;;;;;;;1.70;1.20;;;18.80;56.20;;;;;;5013877;28;20021;-71
2022/01/02 03:32:51;;;;;;;1.67;1.13;;;18.90;56.30;;;;;;5014670;28;20386;-71
2022/01/02 03:35:17;;;;;;;2.83;1.08;;;18.90;56.20;;;;;;5014776;28;20101;-71
2022/01/02 03:37:43;;;;;;;1.75;1.33;;;18.90;56.20;;;;;;5013472;28;20025;-71
2022/01/02 03:40:09;;;;;;;1.77;1.20;;;18.90;56.20;;;;;;5014508;28;20024;-71
2022/01/02 03:42:36;;;;;;;1.52;1.10;;;18.90;56.20;;;;;;5014511;28;20036;-71
2022/01/02 03:45:03;;;;;;;1.50;1.25;;;18.90;56.20;;;;;;5014525;28;20060;-71
2022/01/02 03:47:28;;;;;;;2.78;1.35;;;18.80;56.10;;;;;;5014451;28;20110;-71
2022/01/02 03:49:54;;;;;;;2.53;1.30;;;18.80;56.10;;;;;;5014403;28;20472;-71
2022/01/02 03:52:19;;;;;;;1.98;1.20;;;18.90;56.20;;;;;;5014132;28;20442;-71
2022/01/02 03:54:45;;;;;;;2.05;1.30;;;18.90;56.20;;;;;;5014332;28;20024;-71
2022/01/02 03:57:11;;;;;;;1.25;1.15;;;18.90;56.20;;;;;;5014568;28;20022;-71
2022/01/02 03:59:36;;;;;;;1.75;1.17;;;18.90;56.20;;;;;;5014247;28;20076;-71
2022/01/02 04:02:02;;;;;;;1.90;1.30;;;18.90;56.20;;;;;;5012777;28;20445;-71
2022/01/02 04:04:28;;;;;;;1.95;1.27;;;18.90;56.10;;;;;;5014083;28;20064;-71
2022/01/02 04:06:54;;;;;;;2.00;1.40;;;18.90;56.20;;;;;;5012639;28;20060;-71
2022/01/02 04:09:20;;;;;;;2.47;1.00;;;18.90;56.10;;;;;;5014019;28;20025;-71
2022/01/02 04:11:46;;;;;;;1.73;1.27;;;18.80;56.10;;;;;;5012675;28;20030;-71
2022/01/02 04:14:11;;;;;;;2.35;1.30;;;18.90;56.20;;;;;;5013849;28;20471;-71
2022/01/02 04:16:37;;;;;;;1.42;1.15;;;18.90;56.10;;;;;;5013958;28;20390;-71
2022/01/02 04:19:02;;;;;;;1.42;1.25;;;18.90;56.20;;;;;;4997352;28;20444;-71
2022/01/02 04:21:28;;;;;;;2.10;1.20;;;18.90;56.10;;;;;;4994303;28;20101;-71
2022/01/02 04:23:53;;;;;;;1.95;1.33;;;18.80;56.10;;;;;;4994116;28;20061;-71
2022/01/02 04:26:19;;;;;;;1.65;1.10;;;18.90;56.20;;;;;;4994135;28;20097;-71
2022/01/02 04:28:44;;;;;;;1.67;1.20;;;18.90;56.20;;;;;;4999096;28;20025;-71
2022/01/02 04:31:11;;;;;;;1.52;1.20;;;18.90;56.20;;;;;;5013620;28;20018;-71
2022/01/02 04:33:37;;;;;;;1.45;1.08;;;18.80;56.10;;;;;;5012305;28;20029;-71
2022/01/02 04:36:03;;;;;;;2.13;1.30;;;18.90;56.10;;;;;;5012270;28;20021;-71
2022/01/02 04:38:28;;;;;;;3.22;1.30;;;18.90;56.10;;;;;;5013359;28;20022;-71
2022/01/02 04:40:54;;;;;;;2.05;1.27;;;18.80;56.10;;;;;;5013548;28;20037;-71
2022/01/02 04:43:19;;;;;;;1.77;1.23;;;18.80;56.00;;;;;;5012125;28;20386;-71
2022/01/02 04:45:45;;;;;;;1.38;1.20;;;18.90;56.10;;;;;;5012139;28;20433;-71
2022/01/02 04:48:10;;;;;;;2.13;1.40;;;18.90;56.20;;;;;;5011948;28;20032;-71
2022/01/02 04:50:36;;;;;;;2.47;1.40;;;18.90;56.10;;;;;;5013361;28;20449;-71
2022/01/02 04:53:01;;;;;;;1.95;1.30;;;18.80;56.10;;;;;;5011935;28;20072;-71
2022/01/02 04:55:27;;;;;;;1.80;1.17;;;18.80;56.10;;;;;;5013330;28;20026;-71
2022/01/02 04:57:53;;;;;;;1.40;1.10;;;18.80;56.10;;;;;;5013144;28;20057;-71
2022/01/02 05:00:18;;;;;;;2.00;1.27;;;18.80;56.10;;;;;;5013256;28;20033;-71
2022/01/02 05:02:44;;;;;;;3.00;1.15;;;18.90;56.10;;;;;;5013017;28;20026;-71
2022/01/02 05:05:09;;;;;;;1.40;1.05;;;18.80;56.10;;;;;;5012707;28;20029;-71
2022/01/02 05:07:35;;;;;;;2.45;1.30;;;18.80;56.00;;;;;;5012934;28;20066;-71
2022/01/02 05:10:00;;;;;;;1.73;1.20;;;18.90;57.10;;;;;;5011662;28;20117;-71
2022/01/02 05:12:26;;;;;;;1.92;1.33;;;18.80;56.10;;;;;;5013097;28;20026;-71
2022/01/02 05:14:52;;;;;;;2.75;1.27;;;18.80;56.00;;;;;;5012924;28;20073;-71
2022/01/02 05:17:17;;;;;;;1.83;1.17;;;18.80;56.10;;;;;;5012030;28;20025;-71
2022/01/02 05:19:43;;;;;;;1.85;1.25;;;18.90;56.10;;;;;;4993160;28;20038;-71
2022/01/02 05:22:08;;;;;;;2.40;1.38;;;18.80;56.10;;;;;;4993345;28;20538;-71
2022/01/02 05:24:34;;;;;;;1.42;1.05;;;18.80;56.10;;;;;;4993238;28;20036;-71
2022/01/02 05:26:59;;;;;;;1.65;1.20;;;18.90;56.10;;;;;;4993299;28;20097;-71
2022/01/02 05:29:25;;;;;;;1.92;1.25;;;18.80;56.10;;;;;;5002374;28;20053;-71
2022/01/02 05:31:51;;;;;;;1.58;1.20;;;18.80;56.10;;;;;;5011641;28;20020;-71
2022/01/02 05:34:16;;;;;;;2.33;1.30;;;18.80;56.10;;;;;;5012691;28;20033;-71
2022/01/02 05:36:48;;;;;;;1.67;1.20;;;18.80;56.10;;;;;;5012681;28;20089;-71
2022/01/02 05:39:15;;;;;;;2.38;1.38;;;18.80;56.10;;;;;;5012579;28;20026;-71
2022/01/02 05:41:41;;;;;;;1.98;1.27;;;18.80;56.10;;;;;;5011424;28;20018;-71
2022/01/02 05:44:07;;;;;;;2.35;1.08;;;18.80;56.10;;;;;;5012463;28;20071;-71
2022/01/02 05:46:32;;;;;;;2.03;1.40;;;18.80;56.10;;;;;;5012758;28;20065;-71
2022/01/02 05:48:57;;;;;;;1.70;1.10;;;18.80;56.10;;;;;;5012421;28;20108;-71
2022/01/02 05:51:23;;;;;;;2.05;1.00;;;18.80;56.10;;;;;;5012628;28;20029;-71
2022/01/02 05:53:49;;;;;;;1.67;1.20;;;18.80;56.00;;;;;;5012484;28;20494;-71
2022/01/02 05:56:14;;;;;;;1.90;1.23;;;18.80;56.10;;;;;;5011368;28;20054;-71
2022/01/02 05:58:40;;;;;;;2.42;1.20;;;18.80;56.00;;;;;;5011158;28;20393;-71
2022/01/02 06:01:05;;;;;;;2.53;1.65;;;18.80;56.00;;;;;;5012501;28;20026;-71
2022/01/02 06:03:31;;;;;;;2.25;1.35;;;18.80;56.00;;;;;;5012332;28;20439;-71
2022/01/02 06:05:56;;;;;;;1.70;1.15;;;18.80;56.00;;;;;;5012546;28;20037;-71
2022/01/02 06:08:22;;;;;;;1.88;1.30;;;18.80;56.00;;;;;;5012236;28;20112;-71
2022/01/02 06:10:48;;;;;;;2.50;1.40;;;18.80;56.10;;;;;;5012437;28;20026;-71
2022/01/02 06:13:13;;;;;;;2.28;1.20;;;18.80;56.00;;;;;;5012371;28;20416;-71
2022/01/02 06:15:39;;;;;;;1.23;1.08;;;18.90;56.10;;;;;;5012338;28;20022;-71
2022/01/02 06:18:04;;;;;;;2.00;1.35;;;18.80;56.00;;;;;;5008374;28;20027;-71
2022/01/02 06:20:30;;;;;;;2.55;1.48;;;18.80;56.00;;;;;;4996524;28;20026;-71
2022/01/02 06:22:56;;;;;;;2.35;1.40;;;18.80;56.00;;;;;;4996443;28;20049;-71
2022/01/02 06:25:22;;;;;;;1.52;1.02;;;18.80;56.00;;;;;;4996332;28;20026;-71
2022/01/02 06:27:48;;;;;;;1.98;1.10;;;18.80;56.00;;;;;;4996367;28;20034;-71
2022/01/02 06:30:14;;;;;;;1.48;1.10;;;18.80;56.00;;;;;;5013372;28;20482;-71
2022/01/02 06:32:40;;;;;;;1.98;1.10;;;18.80;56.00;;;;;;5015938;28;20505;-71
2022/01/02 06:35:06;;;;;;;2.10;1.15;;;18.80;56.00;;;;;;5014463;28;20026;-71
2022/01/02 06:37:31;;;;;;;1.85;1.35;;;18.80;56.00;;;;;;5015725;28;20085;-71
2022/01/02 06:39:57;;;;;;;1.23;1.00;;;18.80;56.00;;;;;;5015608;28;20441;-71
2022/01/02 06:42:22;;;;;;;2.35;1.60;;;18.80;56.00;;;;;;5015661;28;20026;-71
2022/01/02 06:44:48;;;;;;;2.42;1.27;;;18.80;56.00;;;;;;5015558;28;20116;-71
2022/01/02 06:47:15;;;;;;;1.65;1.40;;;18.80;56.00;;;;;;5015708;28;20021;-71
2022/01/02 06:49:41;;;;;;;3.17;1.33;;;18.80;55.90;;;;;;5014117;28;20482;-71
2022/01/02 06:52:07;;;;;;;1.42;1.13;;;18.80;56.00;;;;;;5015565;28;20537;-71
2022/01/02 06:54:32;;;;;;;2.13;1.10;;;18.80;56.00;;;;;;5015336;28;20458;-71
2022/01/02 06:56:58;;;;;;;2.17;1.15;;;18.80;56.00;;;;;;5015433;28;20049;-71
2022/01/02 06:59:23;;;;;;;2.00;1.30;;;18.80;56.00;;;;;;5015355;28;20429;-71
2022/01/02 07:01:49;;;;;;;1.60;1.35;;;18.80;56.00;;;;;;5015283;28;20030;-71
2022/01/02 07:04:14;;;;;;;1.42;1.00;;;18.80;56.00;;;;;;5015187;28;20033;-71
2022/01/02 07:06:40;;;;;;;1.85;1.30;;;18.80;56.00;;;;;;5013923;28;20033;-71
2022/01/02 07:09:06;;;;;;;1.58;1.10;;;18.80;56.00;;;;;;5015146;28;20030;-71
2022/01/02 07:11:31;;;;;;;2.22;1.08;;;18.80;56.00;;;;;;5015084;28;20022;-71
2022/01/02 07:13:57;;;;;;;1.15;1.00;;;18.80;56.00;;;;;;5015024;28;20022;-71
2022/01/02 07:16:22;;;;;;;2.38;1.05;;;18.80;56.00;;;;;;5015121;28;20677;-71
2022/01/02 07:18:48;;;;;;;1.77;1.17;;;18.80;56.00;;;;;;5001795;28;20105;-71
2022/01/02 07:21:13;;;;;;;2.03;1.20;;;18.80;56.00;;;;;;4994119;28;20027;-71
2022/01/02 07:23:39;;;;;;;2.05;1.40;;;18.80;56.00;;;;;;4995411;28;20026;-71
2022/01/02 07:26:05;;;;;;;2.00;1.00;;;18.80;56.00;;;;;;4993934;28;20030;-71
2022/01/02 07:28:33;;;;;;;1.83;1.23;;;18.80;56.00;;;;;;4997994;28;20160;-71
2022/01/02 07:30:59;;;;;;;1.52;1.25;;;18.80;56.00;;;;;;5014706;28;20032;-71
2022/01/02 07:33:25;;;;;;;2.33;1.20;;;18.80;55.90;;;;;;5014613;28;20022;-71
2022/01/02 07:35:50;;;;;;;1.48;1.15;;;18.80;56.00;;;;;;5014650;28;20026;-71
2022/01/02 07:38:16;;;;;;;1.67;1.10;;;18.80;56.00;;;;;;5014517;28;20021;-71
2022/01/02 07:40:41;;;;;;;1.38;1.15;;;18.80;56.00;;;;;;5014586;28;20028;-71
2022/01/02 07:43:07;;;;;;;2.83;1.13;;;18.80;56.00;;;;;;5014575;28;20080;-71
2022/01/02 07:45:32;;;;;;;1.63;1.20;;;18.80;56.00;;;;;;5014530;28;20033;-72
2022/01/02 07:47:58;;;;;;;3.05;1.23;;;18.80;55.90;;;;;;5014419;28;20104;-71
2022/01/02 07:50:24;;;;;;;1.45;1.23;;;18.80;55.90;;;;;;5014280;28;20030;-71
2022/01/02 07:52:52;;;;;;;1.63;1.20;;;18.80;55.90;;;;;;5014456;28;20532;-71
2022/01/02 07:55:18;;;;;;;1.35;1.00;;;18.80;56.00;;;;;;5014230;28;20026;-71
2022/01/02 07:57:43;;;;;;;2.20;1.30;;;18.80;55.90;;;;;;5014241;28;20658;-71
2022/01/02 08:00:09;;;;;;;1.42;1.00;;;18.80;55.90;;;;;;5014248;28;20135;-71
2022/01/02 08:02:35;;;;;;;1.60;1.10;;;18.80;55.90;;;;;;5012845;28;20034;-71
2022/01/02 08:05:00;;;;;;;2.38;1.20;;;18.80;55.90;;;;;;5014098;28;20034;-71
2022/01/02 08:07:26;;;;;;;2.58;1.35;;;18.80;56.00;;;;;;5013968;28;20050;-71
2022/01/02 08:09:51;;;;;;;1.83;1.10;;;18.80;55.90;;;;;;5012685;28;20053;-71
2022/01/02 08:12:17;;;;;;;1.77;1.00;;;18.80;55.90;;;;;;5013980;28;20030;-71
2022/01/02 08:14:42;;;;;;;2.35;1.38;;;18.80;55.90;;;;;;5014052;28;20076;-71
2022/01/02 08:17:08;;;;;;;1.70;1.23;;;18.80;56.00;;;;;;5013905;28;20474;-71
2022/01/02 08:19:33;;;;;;;1.50;1.10;;;18.80;55.90;;;;;;4994556;28;20039;-71
2022/01/02 08:21:59;;;;;;;1.73;1.17;;;18.80;55.90;;;;;;4994214;28;20430;-71
2022/01/02 08:24:24;;;;;;;1.70;1.10;;;18.80;55.90;;;;;;4994261;28;20058;-71
2022/01/02 08:26:51;;;;;;;1.33;1.13;;;18.80;55.90;;;;;;4994211;28;20398;-71
2022/01/02 08:29:17;;;;;;;1.48;1.10;;;18.80;56.00;;;;;;5003511;28;20076;-71
2022/01/02 08:31:43;;;;;;;1.88;1.20;;;18.80;56.00;;;;;;5013565;28;20101;-71
2022/01/02 08:34:08;;;;;;;2.25;1.20;;;18.80;55.90;;;;;;5013692;28;20359;-71
2022/01/02 08:36:34;;;;;;;1.73;1.27;;;18.80;55.90;;;;;;5013462;28;20010;-71
2022/01/02 08:38:59;;;;;;;2.38;1.17;;;18.80;55.90;;;;;;5012738;28;20482;-71
2022/01/02 08:41:25;;;;;;;2.00;1.20;;;18.80;55.90;;;;;;5013539;28;20022;-71
2022/01/02 08:43:50;;;;;;;2.30;1.25;;;18.80;55.90;;;;;;5013476;28;20359;-71
2022/01/02 08:46:16;;;;;;;2.25;1.33;;;18.80;55.90;;;;;;5012363;28;20502;-71
2022/01/02 08:48:41;;;;;;;1.50;1.00;;;18.80;55.90;;;;;;5013323;28;20036;-71
2022/01/02 08:51:07;;;;;;;1.35;1.00;;;18.80;55.80;;;;;;5013300;28;20041;-71
2022/01/02 08:53:34;;;;;;;1.92;1.20;;;18.80;55.90;;;;;;5013274;28;20078;-71
2022/01/02 08:56:00;;;;;;;1.73;1.02;;;18.80;55.90;;;;;;5013244;28;20425;-71
2022/01/02 08:58:26;;;;;;;1.92;1.13;;;18.80;55.90;;;;;;5011941;28;20030;-71
2022/01/02 09:00:51;;;;;;;1.60;1.10;;;18.80;55.90;;;;;;5012020;28;20025;-71
2022/01/02 09:03:17;;;;;;;1.50;1.20;;;18.80;55.90;;;;;;5013003;28;20045;-71
2022/01/02 09:05:42;;;;;;;1.42;1.13;;;18.80;56.80;;;;;;5011924;28;20025;-71
2022/01/02 09:08:08;;;;;;;2.53;1.40;;;18.80;55.90;;;;;;5012837;28;20041;-71
2022/01/02 09:10:33;;;;;;;1.30;1.05;;;18.80;55.90;;;;;;5011670;28;20477;-71
2022/01/02 09:12:59;;;;;;;1.80;1.15;;;18.80;55.90;;;;;;5012935;28;20045;-71
2022/01/02 09:15:25;;;;;;;1.88;1.23;;;18.80;55.80;;;;;;5012983;28;20071;-71
2022/01/02 09:17:50;;;;;;;1.52;1.23;;;18.80;55.90;;;;;;5007552;28;20100;-71
2022/01/02 09:20:17;;;;;;;1.23;1.00;;;18.80;56.90;;;;;;4992089;28;20031;-71
2022/01/02 09:22:43;;;;;;;1.83;1.00;;;18.80;55.90;;;;;;4992054;28;20026;-71
2022/01/02 09:25:10;;;;;;;1.92;1.13;;;18.80;55.90;;;;;;4993263;28;20044;-71
2022/01/02 09:27:36;;;;;;;1.38;1.17;;;18.80;55.80;;;;;;4991878;28;20475;-71
2022/01/02 09:30:04;;;;;;;1.40;0.98;;;18.80;55.80;;;;;;5008729;28;20053;-71
2022/01/02 09:32:30;;;;;;;1.30;1.08;;;18.80;55.80;;;;;;5011291;28;20450;-71
2022/01/02 09:34:55;;;;;;;1.75;1.10;;;18.80;55.90;;;;;;5012837;28;20033;-71
2022/01/02 09:37:21;;;;;;;2.00;1.30;;;18.80;55.80;;;;;;5012529;28;20026;-71
2022/01/02 09:39:46;;;;;;;2.42;1.10;;;18.80;55.90;;;;;;5012642;28;20053;-71
2022/01/02 09:42:12;;;;;;;2.08;0.98;;;18.80;55.80;;;;;;5012735;28;20030;-71
2022/01/02 09:44:38;;;;;;;2.22;1.10;;;18.80;55.80;;;;;;5012646;28;20040;-71
2022/01/02 09:47:04;;;;;;;1.95;1.20;;;18.80;55.80;;;;;;5012605;28;20041;-71
2022/01/02 09:49:31;;;;;;;2.25;1.13;;;18.80;55.90;;;;;;5012528;28;20038;-71
2022/01/02 09:51:57;;;;;;;2.15;1.30;;;18.80;55.80;;;;;;5014636;28;20414;-71
2022/01/02 09:54:23;;;;;;;2.40;1.50;;;18.80;55.80;;;;;;5016637;28;20022;-71
2022/01/02 09:56:48;;;;;;;2.50;1.13;;;18.80;55.80;;;;;;5016494;28;20022;-71
2022/01/02 09:59:14;;;;;;;2.72;1.48;;;18.80;55.80;;;;;;5016469;28;20371;-71
2022/01/02 10:01:39;;;;;;;1.60;1.15;;;18.80;55.80;;;;;;5015171;28;20073;-71
2022/01/02 10:04:05;;;;;;;2.28;1.27;;;18.80;55.80;;;;;;5016378;28;20033;-71
2022/01/02 10:06:46;;;;;;;1.95;1.10;;;18.80;55.80;;;;;;5016468;28;20022;-71
2022/01/02 10:09:29;;;;;;;1.77;1.20;;;18.80;55.70;;;;;;5015008;28;20030;-71
2022/01/02 10:12:14;;;;;;;2.45;1.60;;;18.80;55.80;;;;;;5016439;28;20036;-71
2022/01/02 10:14:40;;;;;;;2.15;1.30;;;18.80;55.90;;;;;;5016222;28;20018;-71
2022/01/02 10:17:05;;;;;;;1.83;1.33;;;18.80;55.90;;;;;;5014950;28;20113;-71
2022/01/02 10:19:35;;;;;;;1.85;1.30;;;18.80;55.80;;;;;;4997074;28;20486;-71
2022/01/02 10:22:10;;;;;;;1.92;1.50;;;18.80;55.80;;;;;;4996559;28;20072;-71
2022/01/02 10:24:40;;;;;;;2.58;1.48;;;18.80;55.80;;;;;;4996340;28;20026;-71
2022/01/02 10:27:05;;;;;;;2.20;1.17;;;18.80;55.80;;;;;;4996417;28;20479;-71
2022/01/02 10:29:50;;;;;;;1.63;1.25;;;18.80;55.80;;;;;;5007541;28;20076;-71
2022/01/02 10:32:22;;;;;;;1.92;1.40;;;18.90;55.80;;;;;;5015852;28;20029;-71
2022/01/02 10:34:48;;;;;;;2.22;1.20;;;18.80;55.80;;;;;;5014810;28;20022;-71
2022/01/02 10:37:24;;;;;;;1.52;1.40;;;18.80;55.70;;;;;;5015772;28;20093;-71
2022/01/02 10:39:50;;;;;;;2.53;1.60;;;18.90;55.80;;;;;;5015610;28;20026;-71
2022/01/02 10:42:17;;;;;;;1.90;1.35;;;18.80;55.70;;;;;;5015790;28;20026;-71
2022/01/02 10:44:43;;;;;;;1.73;1.35;;;18.80;55.80;;;;;;5015580;28;20026;-71
2022/01/02 10:47:11;;;;;;;1.67;1.20;;;18.90;55.80;;;;;;5015705;28;20071;-71
2022/01/02 10:49:46;;;;;;;2.03;1.20;;;18.90;55.80;;;;;;5015482;28;20488;-71
2022/01/02 10:52:30;;;;;;;1.52;1.20;;;18.90;55.70;;;;;;5015469;28;20026;-71
2022/01/02 10:55:05;;;;;;;1.98;1.30;;;18.90;55.70;;;;;;5015442;28;20029;-71
2022/01/02 10:57:31;;;;;;;1.98;1.42;;;18.80;55.70;;;;;;5014246;28;20479;-71
2022/01/02 10:59:58;;;;;;;1.70;1.20;;;18.90;55.80;;;;;;5015386;28;20029;-71
2022/01/02 11:02:25;;;;;;;1.35;1.25;;;18.90;55.80;;;;;;5014528;28;20040;-71
2022/01/02 11:04:58;;;;;;;1.70;1.40;;;18.90;56.70;;;;;;5015311;28;20022;-71
2022/01/02 11:07:25;;;;;;;2.80;1.40;;;18.90;55.70;;;;;;5015146;28;20058;-71
2022/01/02 11:09:54;;;;;;;2.92;1.30;;;18.90;55.80;;;;;;5015081;28;20070;-71
2022/01/02 11:12:20;;;;;;;1.63;1.25;;;18.90;55.80;;;;;;5015199;28;20018;-71
2022/01/02 11:14:48;;;;;;;2.67;1.52;;;18.90;55.80;;;;;;5015002;28;20493;-71
2022/01/02 11:17:14;;;;;;;2.13;1.40;;;18.90;56.60;;;;;;5014704;28;20133;-71
2022/01/02 11:19:40;;;;;;;2.28;1.30;;;18.90;55.80;;;;;;4995293;28;20514;-71
2022/01/02 11:22:12;;;;;;;2.03;1.48;;;18.90;55.80;;;;;;4995596;28;20061;-71
2022/01/02 11:24:46;;;;;;;2.08;1.40;;;18.90;55.80;;;;;;4995315;28;20045;-71
2022/01/02 11:27:21;;;;;;;2.08;1.50;;;18.90;55.80;;;;;;4995465;28;20027;-71
2022/01/02 11:29:47;;;;;;;2.40;1.67;;;18.90;55.80;;;;;;5008677;28;20026;-71
2022/01/02 11:32:24;;;;;;;2.38;1.40;;;18.80;55.70;;;;;;5014817;28;20449;-71
2022/01/02 11:34:50;;;;;;;1.92;1.42;;;18.90;55.70;;;;;;5014504;28;20465;-71
2022/01/02 11:37:24;;;;;;;2.13;1.63;;;18.90;55.80;;;;;;5014613;28;20033;-71
2022/01/02 11:39:55;;;;;;;1.92;1.38;;;18.90;55.80;;;;;;5014495;28;20053;-71
2022/01/02 11:42:42;;;;;;;2.28;1.40;;;18.90;55.80;;;;;;5014730;28;20434;-71
2022/01/02 11:45:33;;;;;;;1.55;1.38;;;18.90;55.60;;;;;;5013248;28;20061;-71
2022/01/02 11:48:00;;;;;;;2.60;1.60;;;18.90;55.80;;;;;;5013262;28;20021;-71
2022/01/02 11:50:36;;;;;;;3.10;1.60;;;18.90;55.90;;;;;;5014329;28;20030;-71
2022/01/02 11:53:13;;;;;;;2.40;1.65;;;18.80;55.80;;;;;;5014496;28;20022;-71
2022/01/02 11:55:47;;;;;;;2.40;1.50;;;18.80;55.80;;;;;;5014306;28;20378;-71
2022/01/02 11:58:17;;;;;;;2.50;1.40;;;18.80;55.80;;;;;;5013159;28;20022;-71
2022/01/02 12:00:47;;;;;;;2.03;1.40;;;18.80;55.90;;;;;;5014377;28;20096;-71
2022/01/02 12:03:40;;;;;;;2.45;1.67;;;18.80;55.80;;;;;;5014169;28;20030;-71
2022/01/02 12:06:24;;;;;;;1.80;1.40;;;18.80;55.80;;;;;;5013103;28;20025;-71
2022/01/02 12:08:54;;;;;;;2.30;1.60;;;18.90;55.90;;;;;;5012756;28;20038;-71
2022/01/02 12:11:31;;;;;;;2.13;1.33;;;18.80;55.90;;;;;;5012739;28;20014;-71
2022/01/02 12:14:09;;;;;;;2.60;1.52;;;18.90;55.90;;;;;;5014132;28;20026;-71
2022/01/02 12:16:40;;;;;;;1.88;1.48;;;18.90;55.90;;;;;;5013973;28;20022;-71
2022/01/02 12:19:08;;;;;;;3.10;1.92;;;18.80;55.90;;;;;;4998459;28;20422;-71
2022/01/02 12:21:34;;;;;;;2.63;1.70;;;18.80;56.00;;;;;;4993012;28;20037;-71
2022/01/02 12:24:02;;;;;;;3.08;1.48;;;18.80;56.00;;;;;;4994277;28;20026;-71
2022/01/02 12:26:31;;;;;;;1.65;1.30;;;18.80;56.00;;;;;;4994198;28;20033;-71
2022/01/02 12:29:02;;;;;;;2.55;1.50;;;18.90;55.90;;;;;;5000832;28;20026;-71
2022/01/02 12:31:36;;;;;;;2.47;1.52;;;18.80;55.90;;;;;;5012347;28;20018;-71
2022/01/02 12:34:03;;;;;;;2.53;1.50;;;18.90;55.90;;;;;;5013747;28;20069;-71
2022/01/02 12:36:29;;;;;;;2.63;1.90;;;18.90;56.90;;;;;;5012207;28;20014;-71
2022/01/02 12:38:58;;;;;;;3.85;1.50;;;18.90;55.90;;;;;;5012236;28;20108;-71
2022/01/02 12:41:36;;;;;;;2.20;1.73;;;18.90;55.90;;;;;;5012211;28;20129;-71
2022/01/02 12:44:06;;;;;;;2.20;1.70;;;18.90;55.90;;;;;;5012282;28;20058;-71
2022/01/02 12:46:49;;;;;;;2.40;1.67;;;18.90;56.00;;;;;;5012192;28;20026;-71
2022/01/02 12:49:41;;;;;;;3.92;1.60;;;18.90;55.90;;;;;;5013310;28;20030;-71
2022/01/02 12:52:07;;;;;;;2.53;1.73;;;18.90;55.90;;;;;;5028633;28;20080;-71
2022/01/02 12:54:36;;;;;;;2.47;1.73;;;18.80;56.00;;;;;;5012284;28;20014;-71
2022/01/02 12:57:11;;;;;;;2.78;1.75;;;18.80;56.00;;;;;;5013297;28;20026;-71
2022/01/02 12:59:47;;;;;;;1.50;1.40;;;18.80;56.00;;;;;;5013296;28;20125;-71